createdAt,value
2017-03-20T00:01:00.441Z,17.44
2017-03-20T00:02:13.132Z,17.48
2017-03-20T00:03:25.877Z,17.46
2017-03-20T00:04:38.778Z,17.52
2017-03-20T00:05:51.529Z,17.41
2017-03-20T00:07:04.773Z,17.52
2017-03-20T00:08:17.504Z,17.48
2017-03-20T00:09:30.739Z,17.43
2017-03-20T00:10:43.432Z,17.54
2017-03-20T00:11:56.160Z,17.52
2017-03-20T00:13:09.502Z,17.55
2017-03-20T00:14:21.722Z,17.56
2017-03-20T00:15:34.977Z,17.44
2017-03-20T00:16:47.729Z,17.62
2017-03-20T00:18:00.956Z,17.66
2017-03-20T00:19:14.228Z,17.59
2017-03-20T00:20:27.030Z,17.63
2017-03-20T00:21:40.304Z,17.68
2017-03-20T00:22:53.545Z,17.68
2017-03-20T00:24:05.757Z,17.64
2017-03-20T00:25:18.964Z,17.7
2017-03-20T00:26:31.719Z,17.71
2017-03-20T00:27:44.933Z,17.7
2017-03-20T00:28:58.162Z,17.7
2017-03-20T00:42:53.688Z,17.78
2017-03-20T00:44:06.423Z,17.78
2017-03-20T00:45:19.182Z,17.78
2017-03-20T00:46:31.892Z,17.77
2017-03-20T00:47:44.626Z,17.81
2017-03-20T00:48:57.841Z,17.77
2017-03-20T00:50:10.537Z,17.79
2017-03-20T00:51:23.778Z,17.74
2017-03-20T00:52:37.019Z,17.7
2017-03-20T00:53:49.756Z,17.72
2017-03-20T00:55:01.999Z,17.66
2017-03-20T00:56:15.231Z,17.68
2017-03-20T00:57:27.991Z,17.64
2017-03-20T00:58:40.754Z,17.62
2017-03-20T00:59:52.451Z,17.63
2017-03-20T01:01:05.168Z,17.52
2017-03-20T01:02:18.443Z,17.54
2017-03-20T01:03:31.202Z,17.46
2017-03-20T01:04:44.436Z,17.51
2017-03-20T01:05:57.634Z,17.48
2017-03-20T01:07:10.849Z,17.54
2017-03-20T01:08:24.115Z,17.59
2017-03-20T01:09:36.789Z,17.62
2017-03-20T01:10:49.493Z,17.59
2017-03-20T01:12:02.214Z,17.63
2017-03-20T01:13:15.489Z,17.55
2017-03-20T01:14:28.738Z,17.7
2017-03-20T01:15:41.460Z,17.63
2017-03-20T01:16:53.664Z,17.55
2017-03-20T01:18:06.883Z,17.7
2017-03-20T01:19:19.650Z,17.7
2017-03-20T01:20:32.858Z,17.68
2017-03-20T01:21:45.554Z,17.66
2017-03-20T01:22:58.755Z,17.7
2017-03-20T01:24:11.485Z,17.7
2017-03-20T01:25:24.739Z,17.71
2017-03-20T01:26:37.448Z,17.66
2017-03-20T01:27:48.661Z,17.62
2017-03-20T01:29:01.373Z,17.71
2017-03-20T01:30:13.575Z,17.66
2017-03-20T01:31:26.850Z,17.68
2017-03-20T01:32:39.581Z,17.64
2017-03-20T01:33:52.297Z,17.66
2017-03-20T01:35:05.524Z,17.72
2017-03-20T01:36:18.297Z,17.77
2017-03-20T01:37:30.519Z,17.77
2017-03-20T01:38:43.233Z,17.81
2017-03-20T01:39:55.951Z,17.81
2017-03-20T01:41:08.686Z,17.82
2017-03-20T01:42:21.424Z,17.84
2017-03-20T01:43:34.133Z,17.86
2017-03-20T01:44:47.370Z,17.84
2017-03-20T01:45:59.650Z,17.95
2017-03-20T01:47:12.369Z,17.89
2017-03-20T01:48:25.078Z,17.97
2017-03-20T01:49:37.805Z,17.92
2017-03-20T01:50:50.607Z,17.96
2017-03-20T01:52:03.312Z,17.97
2017-03-20T01:53:16.505Z,17.93
2017-03-20T01:54:29.743Z,17.95
2017-03-20T01:55:42.479Z,17.92
2017-03-20T01:56:55.738Z,17.89
2017-03-20T01:58:07.928Z,17.86
2017-03-20T01:59:21.208Z,17.86
2017-03-20T02:00:34.425Z,17.9
2017-03-20T02:01:47.693Z,17.82
2017-03-20T02:03:00.014Z,17.87
2017-03-20T02:04:12.224Z,17.87
2017-03-20T02:05:24.412Z,17.82
2017-03-20T02:06:37.131Z,17.86
2017-03-20T02:07:50.455Z,17.86
2017-03-20T02:09:03.687Z,17.82
2017-03-20T02:10:16.968Z,17.86
2017-03-20T02:11:29.662Z,17.82
2017-03-20T02:12:42.875Z,17.84
2017-03-20T02:13:55.590Z,17.82
2017-03-20T02:15:08.789Z,17.86
2017-03-20T02:16:21.541Z,17.84
2017-03-20T02:17:34.823Z,17.86
2017-03-20T02:18:47.605Z,17.92
2017-03-20T02:20:00.862Z,17.79
2017-03-20T02:21:14.082Z,17.87
2017-03-20T02:22:27.298Z,17.84
2017-03-20T02:23:40.542Z,17.86
2017-03-20T02:24:52.712Z,17.82
2017-03-20T02:26:05.947Z,17.92
2017-03-20T02:27:19.201Z,17.86
2017-03-20T02:28:32.413Z,17.84
2017-03-20T02:29:45.614Z,17.95
2017-03-20T02:30:58.838Z,17.82
2017-03-20T02:32:11.051Z,17.89
2017-03-20T02:33:24.312Z,17.84
2017-03-20T02:34:37.580Z,17.82
2017-03-20T02:35:49.790Z,17.93
2017-03-20T02:37:03.029Z,17.87
2017-03-20T02:38:15.754Z,17.89
2017-03-20T02:39:28.995Z,17.86
2017-03-20T02:40:41.716Z,17.84
2017-03-20T02:41:55.008Z,17.93
2017-03-20T02:43:07.712Z,17.9
2017-03-20T02:44:20.928Z,17.93
2017-03-20T02:45:34.158Z,17.86
2017-03-20T02:46:46.869Z,17.92
2017-03-20T02:48:00.099Z,17.86
2017-03-20T02:49:12.824Z,17.89
2017-03-20T02:50:25.633Z,17.93
2017-03-20T02:51:38.878Z,17.93
2017-03-20T02:52:51.614Z,17.95
2017-03-20T02:54:03.848Z,17.96
2017-03-20T02:55:17.111Z,17.96
2017-03-20T02:56:30.345Z,17.84
2017-03-20T02:57:43.553Z,17.93
2017-03-20T02:58:55.765Z,17.87
2017-03-20T03:00:08.476Z,17.87
2017-03-20T03:01:21.724Z,17.84
2017-03-20T03:02:34.452Z,17.95
2017-03-20T03:03:47.694Z,17.89
2017-03-20T03:04:59.931Z,17.87
2017-03-20T03:06:12.682Z,17.89
2017-03-20T03:07:25.891Z,17.84
2017-03-20T03:08:39.151Z,17.86
2017-03-20T03:09:52.365Z,17.9
2017-03-20T03:11:05.104Z,17.96
2017-03-20T03:12:18.326Z,17.92
2017-03-20T03:13:31.054Z,17.82
2017-03-20T03:14:43.484Z,17.86
2017-03-20T03:15:56.192Z,17.77
2017-03-20T03:17:09.443Z,17.89
2017-03-20T03:18:22.189Z,17.82
2017-03-20T03:19:34.927Z,17.72
2017-03-20T03:20:48.150Z,17.71
2017-03-20T03:22:01.161Z,17.66
2017-03-20T03:23:14.425Z,17.62
2017-03-20T03:24:26.616Z,17.71
2017-03-20T03:25:39.358Z,17.74
2017-03-20T03:26:52.601Z,17.75
2017-03-20T03:28:05.363Z,17.74
2017-03-20T03:29:18.088Z,17.7
2017-03-20T03:30:30.300Z,17.72
2017-03-20T03:31:43.531Z,17.7
2017-03-20T03:32:55.746Z,17.58
2017-03-20T03:34:08.969Z,17.64
2017-03-20T03:35:22.212Z,17.64
2017-03-20T03:36:35.453Z,17.66
2017-03-20T03:37:48.202Z,17.63
2017-03-20T03:39:01.474Z,17.58
2017-03-20T03:40:13.178Z,17.63
2017-03-20T03:41:25.924Z,17.58
2017-03-20T03:42:39.155Z,17.58
2017-03-20T03:43:52.413Z,17.58
2017-03-20T03:45:05.688Z,17.54
2017-03-20T03:46:18.380Z,17.55
2017-03-20T03:47:31.600Z,17.54
2017-03-20T03:48:44.891Z,17.52
2017-03-20T03:49:57.618Z,17.51
2017-03-20T03:51:10.365Z,17.51
2017-03-20T03:52:22.077Z,17.56
2017-03-20T03:53:34.816Z,17.63
2017-03-20T03:54:48.212Z,17.63
2017-03-20T03:56:00.950Z,17.66
2017-03-20T03:57:14.219Z,17.68
2017-03-20T03:58:27.492Z,17.66
2017-03-20T03:59:40.682Z,17.68
2017-03-20T04:00:53.913Z,17.7
2017-03-20T04:02:06.678Z,17.71
2017-03-20T04:03:19.403Z,17.68
2017-03-20T04:04:32.653Z,17.7
2017-03-20T04:05:44.356Z,17.64
2017-03-20T04:06:56.553Z,17.7
2017-03-20T04:08:09.274Z,17.62
2017-03-20T04:09:21.006Z,17.62
2017-03-20T04:10:34.252Z,17.64
2017-03-20T04:11:46.456Z,17.56
2017-03-20T04:12:59.703Z,17.58
2017-03-20T04:14:11.945Z,17.62
2017-03-20T04:15:24.696Z,17.71
2017-03-20T04:16:37.428Z,17.71
2017-03-20T04:17:50.172Z,17.74
2017-03-20T04:19:03.377Z,17.72
2017-03-20T04:20:16.639Z,17.78
2017-03-20T04:21:29.329Z,17.86
2017-03-20T04:22:42.572Z,17.89
2017-03-20T04:23:55.321Z,17.81
2017-03-20T04:25:08.549Z,17.79
2017-03-20T04:26:21.745Z,17.75
2017-03-20T04:27:34.477Z,17.75
2017-03-20T04:28:47.717Z,17.75
2017-03-20T04:30:00.935Z,17.84
2017-03-20T04:31:13.660Z,17.77
2017-03-20T04:32:26.905Z,17.82
2017-03-20T04:33:39.626Z,17.78
2017-03-20T04:34:52.871Z,17.81
2017-03-20T04:36:05.575Z,17.75
2017-03-20T04:37:18.823Z,17.79
2017-03-20T04:38:32.062Z,17.79
2017-03-20T04:39:45.309Z,17.79
2017-03-20T04:40:58.013Z,17.77
2017-03-20T04:42:10.773Z,17.84
2017-03-20T04:43:23.527Z,17.78
2017-03-20T04:44:36.798Z,17.81
2017-03-20T04:45:49.503Z,17.92
2017-03-20T04:47:02.214Z,17.84
2017-03-20T04:48:14.519Z,17.86
2017-03-20T04:49:27.241Z,17.79
2017-03-20T04:50:40.540Z,17.87
2017-03-20T04:51:52.742Z,17.87
2017-03-20T04:53:05.460Z,17.92
2017-03-20T04:54:18.179Z,17.9
2017-03-20T04:55:30.894Z,17.95
2017-03-20T04:56:44.125Z,17.82
2017-03-20T04:57:57.347Z,17.87
2017-03-20T04:59:10.074Z,17.74
2017-03-20T05:00:23.292Z,17.68
2017-03-20T05:01:35.992Z,17.55
2017-03-20T05:02:49.213Z,17.4
2017-03-20T05:04:02.448Z,17.3
2017-03-20T05:05:14.676Z,17.37
2017-03-20T05:06:26.908Z,17.21
2017-03-20T05:07:40.142Z,17.21
2017-03-20T05:08:52.887Z,17.23
2017-03-20T05:10:05.098Z,17.3
2017-03-20T05:11:17.840Z,17.21
2017-03-20T05:12:31.088Z,17.19
2017-03-20T05:13:43.785Z,17.19
2017-03-20T05:14:56.506Z,17.25
2017-03-20T05:16:09.259Z,17.19
2017-03-20T05:17:21.997Z,17.26
2017-03-20T05:18:35.263Z,17.18
2017-03-20T05:19:48.481Z,17.18
2017-03-20T05:21:01.222Z,17.19
2017-03-20T05:22:13.976Z,17.19
2017-03-20T05:23:26.689Z,17.28
2017-03-20T05:24:39.926Z,17.28
2017-03-20T05:25:53.164Z,17.22
2017-03-20T05:27:05.908Z,17.22
2017-03-20T05:28:19.179Z,17.22
2017-03-20T05:29:32.465Z,17.25
2017-03-20T05:30:45.672Z,17.26
2017-03-20T05:31:57.870Z,17.28
2017-03-20T05:33:10.631Z,17.22
2017-03-20T05:34:23.911Z,17.22
2017-03-20T05:35:37.156Z,17.16
2017-03-20T05:36:50.396Z,17.25
2017-03-20T05:38:03.625Z,17.26
2017-03-20T05:39:16.837Z,17.21
2017-03-20T05:40:30.067Z,17.21
2017-03-20T05:41:43.318Z,17.23
2017-03-20T05:42:56.017Z,17.23
2017-03-20T05:44:09.272Z,17.21
2017-03-20T05:45:22.018Z,17.23
2017-03-20T05:46:35.233Z,17.23
2017-03-20T05:47:48.472Z,17.26
2017-03-20T05:49:01.227Z,17.3
2017-03-20T05:50:14.432Z,17.37
2017-03-20T05:51:27.154Z,17.37
2017-03-20T05:52:40.422Z,17.31
2017-03-20T05:53:53.658Z,17.31
2017-03-20T05:55:06.908Z,17.36
2017-03-20T05:56:20.191Z,17.34
2017-03-20T05:57:32.927Z,17.37
2017-03-20T05:58:46.205Z,17.4
2017-03-20T05:59:59.503Z,17.43
2017-03-20T06:01:12.202Z,17.41
2017-03-20T06:02:25.432Z,17.46
2017-03-20T06:03:38.672Z,17.49
2017-03-20T06:04:51.417Z,17.46
2017-03-20T06:06:04.152Z,17.56
2017-03-20T06:07:17.378Z,17.48
2017-03-20T06:08:30.103Z,17.52
2017-03-20T06:09:42.859Z,17.54
2017-03-20T06:10:56.121Z,17.51
2017-03-20T06:12:08.338Z,17.56
2017-03-20T06:13:21.090Z,17.63
2017-03-20T06:14:34.320Z,17.59
2017-03-20T06:15:47.564Z,17.63
2017-03-20T06:17:00.795Z,17.58
2017-03-20T06:18:13.555Z,17.62
2017-03-20T06:19:26.803Z,17.64
2017-03-20T06:20:40.059Z,17.63
2017-03-20T06:21:53.300Z,17.56
2017-03-20T06:23:05.542Z,17.59
2017-03-20T06:24:18.866Z,17.63
2017-03-20T06:25:31.693Z,17.63
2017-03-20T06:26:44.442Z,17.56
2017-03-20T06:27:57.164Z,17.59
2017-03-20T06:29:09.880Z,17.62
2017-03-20T06:30:22.576Z,17.66
2017-03-20T06:31:35.818Z,17.7
2017-03-20T06:32:49.062Z,17.66
2017-03-20T06:34:01.316Z,17.66
2017-03-20T06:35:14.567Z,17.66
2017-03-20T06:36:27.278Z,17.79
2017-03-20T06:37:40.583Z,17.68
2017-03-20T06:38:53.838Z,17.74
2017-03-20T06:40:06.579Z,17.63
2017-03-20T06:41:19.317Z,17.77
2017-03-20T06:42:32.539Z,17.64
2017-03-20T06:43:44.735Z,17.7
2017-03-20T06:44:58.003Z,17.7
2017-03-20T06:46:11.303Z,17.77
2017-03-20T06:47:24.547Z,17.79
2017-03-20T06:48:37.801Z,17.81
2017-03-20T06:49:51.048Z,17.77
2017-03-20T06:51:03.250Z,17.82
2017-03-20T06:52:15.961Z,17.82
2017-03-20T06:53:29.201Z,17.82
2017-03-20T06:54:41.938Z,17.84
2017-03-20T06:55:55.280Z,17.77
2017-03-20T06:57:08.529Z,17.77
2017-03-20T06:58:21.741Z,17.79
2017-03-20T06:59:34.968Z,17.77
2017-03-20T07:00:48.271Z,17.84
2017-03-20T07:02:01.001Z,17.81
2017-03-20T07:03:13.231Z,17.79
2017-03-20T07:04:26.474Z,17.77
2017-03-20T07:05:39.668Z,17.78
2017-03-20T07:06:52.976Z,17.82
2017-03-20T07:08:05.764Z,17.84
2017-03-20T07:09:19.020Z,17.75
2017-03-20T07:10:32.244Z,17.9
2017-03-20T07:11:44.964Z,17.84
2017-03-20T07:12:58.168Z,17.81
2017-03-20T07:14:10.391Z,17.87
2017-03-20T07:15:23.094Z,17.82
2017-03-20T07:16:36.381Z,17.79
2017-03-20T07:17:49.132Z,17.84
2017-03-20T07:19:01.860Z,17.86
2017-03-20T07:20:14.585Z,17.84
2017-03-20T07:21:27.344Z,17.79
2017-03-20T07:22:40.554Z,17.74
2017-03-20T07:23:53.822Z,17.64
2017-03-20T07:25:06.023Z,17.74
2017-03-20T07:26:19.329Z,17.66
2017-03-20T07:27:32.595Z,17.7
2017-03-20T07:28:44.807Z,17.74
2017-03-20T07:29:58.047Z,17.64
2017-03-20T07:31:10.280Z,17.7
2017-03-20T07:32:23.516Z,17.68
2017-03-20T07:33:36.280Z,17.66
2017-03-20T07:34:48.999Z,17.64
2017-03-20T07:36:01.720Z,17.62
2017-03-20T07:37:14.982Z,17.63
2017-03-20T07:38:28.237Z,17.64
2017-03-20T07:39:41.549Z,17.64
2017-03-20T07:40:54.796Z,17.7
2017-03-20T07:42:07.008Z,17.63
2017-03-20T07:43:20.217Z,17.77
2017-03-20T07:44:33.442Z,17.77
2017-03-20T07:45:45.674Z,17.64
2017-03-20T07:46:58.393Z,17.72
2017-03-20T07:48:11.635Z,17.77
2017-03-20T07:49:24.910Z,17.82
2017-03-20T07:50:38.167Z,17.82
2017-03-20T07:51:50.900Z,17.81
2017-03-20T07:53:04.159Z,17.81
2017-03-20T07:54:17.403Z,17.78
2017-03-20T07:55:30.152Z,17.74
2017-03-20T07:56:42.866Z,17.71
2017-03-20T07:57:56.104Z,17.72
2017-03-20T07:59:09.341Z,17.66
2017-03-20T08:00:22.577Z,17.68
2017-03-20T08:01:35.816Z,17.64
2017-03-20T08:02:49.052Z,17.72
2017-03-20T08:04:01.779Z,17.79
2017-03-20T08:05:15.058Z,17.86
2017-03-20T08:06:27.280Z,17.79
2017-03-20T08:07:40.005Z,17.84
2017-03-20T08:08:53.568Z,17.77
2017-03-20T08:10:06.289Z,17.77
2017-03-20T08:11:18.501Z,17.75
2017-03-20T08:12:31.227Z,17.89
2017-03-20T08:13:44.444Z,17.82
2017-03-20T08:14:57.677Z,17.84
2017-03-20T08:16:09.859Z,17.86
2017-03-20T08:17:23.095Z,17.84
2017-03-20T08:18:35.828Z,17.77
2017-03-20T08:19:49.060Z,17.86
2017-03-20T08:21:01.253Z,17.81
2017-03-20T08:22:14.002Z,17.9
2017-03-20T08:23:26.717Z,17.84
2017-03-20T08:24:39.975Z,17.86
2017-03-20T08:25:53.202Z,17.79
2017-03-20T08:27:05.918Z,17.84
2017-03-20T08:28:18.704Z,17.78
2017-03-20T08:29:31.917Z,17.84
2017-03-20T08:30:45.195Z,17.86
2017-03-20T08:31:58.435Z,17.82
2017-03-20T08:33:11.660Z,17.89
2017-03-20T08:34:24.875Z,17.84
2017-03-20T08:35:37.596Z,17.82
2017-03-20T08:36:50.302Z,17.89
2017-03-20T08:38:03.535Z,17.86
2017-03-20T08:39:16.756Z,17.96
2017-03-20T08:40:29.468Z,17.93
2017-03-20T08:41:42.184Z,17.99
2017-03-20T08:42:55.421Z,17.96
2017-03-20T08:44:08.662Z,17.99
2017-03-20T08:45:21.938Z,18.1
2017-03-20T08:46:35.215Z,18.07
2017-03-20T08:47:48.501Z,18.07
2017-03-20T08:49:01.745Z,18.03
2017-03-20T08:50:14.960Z,18.14
2017-03-20T08:51:28.192Z,18.15
2017-03-20T08:52:41.418Z,18.12
2017-03-20T08:53:54.710Z,18.12
2017-03-20T08:55:07.997Z,18.14
2017-03-20T08:56:20.703Z,18.12
2017-03-20T08:57:33.484Z,18.05
2017-03-20T08:58:46.198Z,18.07
2017-03-20T08:59:59.430Z,18.1
2017-03-20T09:01:12.167Z,18.07
2017-03-20T09:02:25.384Z,18.07
2017-03-20T09:03:38.080Z,18.05
2017-03-20T09:04:50.825Z,18
2017-03-20T09:06:04.080Z,18
2017-03-20T09:07:17.333Z,18
2017-03-20T09:08:30.059Z,17.97
2017-03-20T09:09:42.278Z,17.97
2017-03-20T09:10:55.514Z,17.96
2017-03-20T09:12:08.208Z,17.96
2017-03-20T09:13:21.469Z,17.9
2017-03-20T09:14:34.712Z,17.93
2017-03-20T09:15:47.932Z,17.86
2017-03-20T09:17:01.193Z,17.96
2017-03-20T09:18:14.427Z,17.89
2017-03-20T09:19:26.106Z,17.93
2017-03-20T09:20:38.836Z,17.96
2017-03-20T09:21:52.039Z,17.93
2017-03-20T09:23:05.269Z,17.97
2017-03-20T09:24:18.494Z,17.95
2017-03-20T09:25:31.737Z,17.96
2017-03-20T09:26:44.484Z,17.97
2017-03-20T09:27:57.708Z,18
2017-03-20T09:29:10.438Z,17.96
2017-03-20T09:30:23.218Z,17.93
2017-03-20T09:31:36.444Z,17.97
2017-03-20T09:32:49.196Z,18.03
2017-03-20T09:34:02.458Z,18.05
2017-03-20T09:35:15.709Z,17.96
2017-03-20T09:36:27.423Z,18.02
2017-03-20T09:37:40.692Z,18.05
2017-03-20T09:38:53.434Z,17.97
2017-03-20T09:40:06.163Z,18.02
2017-03-20T09:41:18.879Z,17.99
2017-03-20T09:42:31.596Z,17.96
2017-03-20T09:43:44.325Z,17.95
2017-03-20T09:44:57.575Z,17.86
2017-03-20T09:46:09.785Z,17.84
2017-03-20T09:47:23.054Z,17.82
2017-03-20T09:48:36.304Z,17.84
2017-03-20T09:49:49.040Z,17.79
2017-03-20T09:51:02.257Z,17.82
2017-03-20T09:52:14.968Z,17.86
2017-03-20T09:53:27.677Z,17.97
2017-03-20T09:54:40.395Z,18.02
2017-03-20T09:55:53.635Z,18.15
2017-03-20T09:57:06.351Z,18.14
2017-03-20T09:58:18.561Z,18.21
2017-03-20T09:59:31.275Z,18.3
2017-03-20T10:00:44.541Z,18.33
2017-03-20T10:01:57.751Z,18.32
2017-03-20T10:03:10.474Z,18.41
2017-03-20T10:04:23.710Z,18.47
2017-03-20T10:05:36.434Z,18.5
2017-03-20T10:06:49.148Z,18.42
2017-03-20T10:08:02.410Z,18.47
2017-03-20T10:09:15.637Z,18.45
2017-03-20T10:10:28.874Z,18.6
2017-03-20T10:11:42.102Z,18.62
2017-03-20T10:12:54.811Z,18.6
2017-03-20T10:14:07.548Z,18.66
2017-03-20T10:15:20.272Z,18.73
2017-03-20T10:16:33.523Z,18.8
2017-03-20T10:17:45.791Z,18.85
2017-03-20T10:18:59.023Z,18.99
2017-03-20T10:20:11.728Z,19.08
2017-03-20T10:21:24.983Z,19.08
2017-03-20T10:22:37.741Z,19.02
2017-03-20T10:23:51.003Z,19.1
2017-03-20T10:25:03.742Z,19.02
2017-03-20T10:26:16.994Z,19.07
2017-03-20T10:27:29.700Z,19.08
2017-03-20T10:28:42.492Z,19.06
2017-03-20T10:29:55.725Z,19.14
2017-03-20T10:31:07.980Z,19.25
2017-03-20T10:32:21.211Z,19.25
2017-03-20T10:33:33.931Z,19.16
2017-03-20T10:34:46.647Z,19.25
2017-03-20T10:35:59.886Z,19.28
2017-03-20T10:37:12.604Z,19.29
2017-03-20T10:38:24.799Z,19.28
2017-03-20T10:39:37.520Z,19.37
2017-03-20T10:40:49.742Z,19.39
2017-03-20T10:42:02.955Z,19.25
2017-03-20T10:43:14.614Z,19.21
2017-03-20T10:44:27.326Z,19.21
2017-03-20T10:45:39.573Z,19.37
2017-03-20T10:46:51.785Z,19.54
2017-03-20T10:48:05.066Z,19.63
2017-03-20T10:49:17.795Z,20.11
2017-03-20T10:50:30.054Z,20.29
2017-03-20T10:51:42.246Z,20.42
2017-03-20T10:52:55.485Z,20.51
2017-03-20T10:54:08.758Z,20.42
2017-03-20T10:55:20.989Z,20.31
2017-03-20T10:56:34.233Z,20.14
2017-03-20T10:57:46.984Z,19.84
2017-03-20T10:59:00.275Z,19.83
2017-03-20T11:00:13.063Z,19.65
2017-03-20T11:01:25.808Z,19.59
2017-03-20T11:02:38.010Z,19.43
2017-03-20T11:03:50.216Z,19.58
2017-03-20T11:05:03.466Z,19.73
2017-03-20T11:06:15.171Z,19.63
2017-03-20T11:07:27.432Z,19.76
2017-03-20T11:08:40.667Z,20.1
2017-03-20T11:09:53.364Z,20.48
2017-03-20T11:11:06.387Z,20.76
2017-03-20T11:12:18.937Z,20.51
2017-03-20T11:13:31.676Z,20.31
2017-03-20T11:14:44.434Z,20.26
2017-03-20T11:15:57.688Z,20.28
2017-03-20T11:17:10.918Z,20.48
2017-03-20T11:18:23.092Z,21.04
2017-03-20T11:19:35.829Z,21.54
2017-03-20T11:20:49.066Z,22.35
2017-03-20T11:22:01.795Z,22.86
2017-03-20T11:23:14.835Z,23.2
2017-03-20T11:24:27.562Z,23.38
2017-03-20T11:25:40.303Z,23.57
2017-03-20T11:26:53.552Z,23.54
2017-03-20T11:28:06.826Z,23.35
2017-03-20T11:29:19.544Z,22.83
2017-03-20T11:30:32.770Z,22.6
2017-03-20T11:31:45.516Z,22.46
2017-03-20T11:32:57.791Z,22.22
2017-03-20T11:34:10.518Z,21.9
2017-03-20T11:35:23.231Z,21.72
2017-03-20T11:36:35.947Z,21.92
2017-03-20T11:37:48.173Z,22.37
2017-03-20T11:39:01.378Z,22.46
2017-03-20T11:40:14.626Z,22.14
2017-03-20T11:41:27.882Z,21.71
2017-03-20T11:42:41.143Z,21.46
2017-03-20T11:43:53.392Z,21.14
2017-03-20T11:45:06.131Z,20.8
2017-03-20T11:46:18.344Z,20.58
2017-03-20T11:47:31.454Z,20.33
2017-03-20T11:48:44.722Z,20.51
2017-03-20T11:49:57.454Z,20.64
2017-03-20T11:51:10.205Z,20.57
2017-03-20T11:52:21.940Z,20.51
2017-03-20T11:53:34.690Z,20.77
2017-03-20T11:54:46.956Z,20.94
2017-03-20T11:55:59.719Z,21.25
2017-03-20T11:57:12.444Z,21.74
2017-03-20T11:58:25.149Z,22.37
2017-03-20T11:59:37.870Z,22.92
2017-03-20T12:00:51.127Z,23.23
2017-03-20T12:02:03.841Z,22.77
2017-03-20T12:03:16.623Z,21.9
2017-03-20T12:04:29.908Z,21.34
2017-03-20T12:05:42.606Z,20.97
2017-03-20T12:06:55.822Z,20.74
2017-03-20T12:08:08.554Z,20.57
2017-03-20T12:09:21.296Z,20.7
2017-03-20T12:10:34.539Z,20.62
2017-03-20T12:11:47.758Z,20.62
2017-03-20T12:12:59.951Z,20.64
2017-03-20T12:14:12.700Z,20.79
2017-03-20T12:15:24.453Z,21.24
2017-03-20T12:16:37.711Z,21.47
2017-03-20T12:17:50.446Z,21.75
2017-03-20T12:19:03.708Z,21.84
2017-03-20T12:20:16.424Z,22.06
2017-03-20T12:21:29.146Z,22.09
2017-03-20T12:22:41.356Z,22.1
2017-03-20T12:23:54.101Z,21.86
2017-03-20T12:25:07.335Z,22.1
2017-03-20T12:26:20.628Z,22.2
2017-03-20T12:27:33.918Z,22.02
2017-03-20T12:28:46.134Z,21.59
2017-03-20T12:29:58.379Z,21.14
2017-03-20T12:31:10.593Z,21.14
2017-03-20T12:32:23.826Z,21.38
2017-03-20T12:33:37.086Z,21.37
2017-03-20T12:34:50.359Z,21.47
2017-03-20T12:36:03.088Z,22
2017-03-20T12:37:16.307Z,22.52
2017-03-20T12:38:28.534Z,23.07
2017-03-20T12:39:41.259Z,23.79
2017-03-20T12:40:53.999Z,24.22
2017-03-20T12:42:06.725Z,24.87
2017-03-20T12:43:19.976Z,25.18
2017-03-20T12:44:33.243Z,24.9
2017-03-20T12:45:45.491Z,24.24
2017-03-20T12:46:58.745Z,23.2
2017-03-20T12:48:11.998Z,22.88
2017-03-20T12:49:24.719Z,22.98
2017-03-20T12:50:37.474Z,22.77
2017-03-20T12:51:50.218Z,22.45
2017-03-20T12:53:03.444Z,22.36
2017-03-20T12:54:16.192Z,22.65
2017-03-20T12:55:28.928Z,22.75
2017-03-20T12:56:41.642Z,22.7
2017-03-20T12:57:54.867Z,22.79
2017-03-20T12:59:07.606Z,23.17
2017-03-20T13:00:20.907Z,23.68
2017-03-20T13:01:33.639Z,24.02
2017-03-20T13:02:45.866Z,24.18
2017-03-20T13:03:58.624Z,24.09
2017-03-20T13:05:11.892Z,23.88
2017-03-20T13:06:24.133Z,23.88
2017-03-20T13:07:37.393Z,23.76
2017-03-20T13:08:50.092Z,23.15
2017-03-20T13:10:02.853Z,22.77
2017-03-20T13:11:15.603Z,22.73
2017-03-20T13:12:28.349Z,22.83
2017-03-20T13:13:41.076Z,22.73
2017-03-20T13:14:54.357Z,22.39
2017-03-20T13:16:07.667Z,22.31
2017-03-20T13:17:20.987Z,22.55
2017-03-20T13:18:33.741Z,22.52
2017-03-20T13:19:46.010Z,22.52
2017-03-20T13:20:57.719Z,22.47
2017-03-20T13:22:09.908Z,22.43
2017-03-20T13:23:23.174Z,22.64
2017-03-20T13:24:35.895Z,22.9
2017-03-20T13:25:48.684Z,22.92
2017-03-20T13:27:01.920Z,23.04
2017-03-20T13:28:15.155Z,23.2
2017-03-20T13:29:27.895Z,23.33
2017-03-20T13:30:40.623Z,23.19
2017-03-20T13:31:52.834Z,22.85
2017-03-20T13:33:06.105Z,22.76
2017-03-20T13:34:19.346Z,22.61
2017-03-20T13:35:32.103Z,22.83
2017-03-20T13:36:44.850Z,23.31
2017-03-20T13:37:57.604Z,23.84
2017-03-20T13:39:10.351Z,23.97
2017-03-20T13:40:22.568Z,24.12
2017-03-20T13:41:35.317Z,24.2
2017-03-20T13:42:48.547Z,24.55
2017-03-20T13:44:01.290Z,25.06
2017-03-20T13:45:14.095Z,25.39
2017-03-20T13:46:26.824Z,25.51
2017-03-20T13:47:39.621Z,25.77
2017-03-20T13:48:52.858Z,25.52
2017-03-20T13:50:05.049Z,24.99
2017-03-20T13:51:17.854Z,25.23
2017-03-20T13:52:31.120Z,25.14
2017-03-20T13:53:44.349Z,24.87
2017-03-20T13:54:57.788Z,24.25
2017-03-20T13:56:10.689Z,24.27
2017-03-20T13:57:23.954Z,24.27
2017-03-20T13:58:37.241Z,24.43
2017-03-20T13:59:50.525Z,24.37
2017-03-20T14:01:03.786Z,23.9
2017-03-20T14:02:17.048Z,23.72
2017-03-20T14:03:29.783Z,23.65
2017-03-20T14:04:43.231Z,23.42
2017-03-20T14:05:56.486Z,23.27
2017-03-20T14:07:09.328Z,23.09
2017-03-20T14:08:22.612Z,23
2017-03-20T14:09:35.365Z,22.9
2017-03-20T14:10:48.626Z,22.85
2017-03-20T14:12:01.872Z,22.58
2017-03-20T14:13:14.759Z,22.6
2017-03-20T14:14:27.488Z,22.57
2017-03-20T14:15:40.746Z,22.49
2017-03-20T14:16:52.974Z,22.52
2017-03-20T14:18:06.200Z,22.61
2017-03-20T14:19:19.452Z,22.65
2017-03-20T14:20:31.782Z,22.75
2017-03-20T14:21:44.567Z,22.83
2017-03-20T14:22:57.944Z,22.91
2017-03-20T14:24:10.136Z,23.19
2017-03-20T14:25:23.357Z,23.38
2017-03-20T14:26:36.687Z,23.76
2017-03-20T14:27:49.410Z,24.18
2017-03-20T14:29:02.676Z,24.61
2017-03-20T14:30:14.944Z,24.61
2017-03-20T14:31:27.721Z,24.58
2017-03-20T14:32:41.015Z,24.13
2017-03-20T14:33:53.801Z,23.84
2017-03-20T14:35:06.628Z,23.58
2017-03-20T14:36:18.862Z,23.68
2017-03-20T14:37:31.607Z,24.25
2017-03-20T14:38:44.884Z,24.77
2017-03-20T14:39:57.670Z,24.13
2017-03-20T14:41:10.383Z,24.08
2017-03-20T14:42:23.618Z,23.83
2017-03-20T14:43:36.884Z,23.6
2017-03-20T14:44:49.923Z,23.28
2017-03-20T14:46:02.757Z,23.22
2017-03-20T14:47:15.510Z,23.23
2017-03-20T14:48:28.245Z,23.25
2017-03-20T14:49:41.069Z,23.22
2017-03-20T14:50:54.320Z,23.13
2017-03-20T14:52:07.254Z,23.23
2017-03-20T14:53:20.672Z,23.35
2017-03-20T14:54:33.387Z,23.54
2017-03-20T14:55:46.115Z,23.25
2017-03-20T14:56:59.346Z,22.85
2017-03-20T14:58:12.590Z,23.02
2017-03-20T14:59:25.834Z,23.27
2017-03-20T15:00:38.049Z,23.69
2017-03-20T15:01:50.796Z,24.09
2017-03-20T15:03:04.077Z,24.4
2017-03-20T15:04:17.518Z,24.25
2017-03-20T15:05:30.280Z,23.88
2017-03-20T15:06:42.017Z,23.57
2017-03-20T15:07:55.266Z,23.76
2017-03-20T15:09:08.544Z,24.24
2017-03-20T15:10:22.013Z,24.87
2017-03-20T15:11:35.251Z,25.42
2017-03-20T15:12:48.003Z,25.67
2017-03-20T15:14:00.229Z,26.17
2017-03-20T15:15:13.499Z,26.12
2017-03-20T15:16:26.800Z,26.01
2017-03-20T15:17:40.216Z,26.15
2017-03-20T15:18:52.938Z,25.72
2017-03-20T15:20:05.398Z,25.43
2017-03-20T15:21:18.146Z,25.02
2017-03-20T15:22:30.886Z,25.03
2017-03-20T15:23:43.573Z,24.65
2017-03-20T15:24:56.866Z,24.46
2017-03-20T15:26:09.269Z,24.34
2017-03-20T15:27:22.503Z,24.4
2017-03-20T15:28:35.252Z,24.61
2017-03-20T15:29:47.994Z,24.96
2017-03-20T15:31:01.327Z,25.27
2017-03-20T15:32:14.587Z,25.52
2017-03-20T15:33:27.865Z,25.61
2017-03-20T15:34:41.108Z,25.54
2017-03-20T15:35:53.858Z,25.38
2017-03-20T15:37:07.126Z,25.05
2017-03-20T15:38:20.392Z,25.05
2017-03-20T15:39:33.113Z,25.05
2017-03-20T15:40:45.868Z,24.83
2017-03-20T15:41:59.113Z,24.6
2017-03-20T15:43:11.918Z,24.55
2017-03-20T15:44:25.199Z,24.83
2017-03-20T15:45:38.430Z,24.73
2017-03-20T15:46:50.146Z,24.73
2017-03-20T15:48:02.920Z,24.81
2017-03-20T15:49:16.188Z,24.84
2017-03-20T15:50:29.417Z,25.36
2017-03-20T15:51:42.675Z,25.38
2017-03-20T15:52:55.459Z,25.36
2017-03-20T15:54:08.196Z,25.27
2017-03-20T15:55:21.445Z,25.09